Abuna, Brazil
Current Conditions -  °F | °C
As of 4:00 PM on Friday 19 Dec 2014 (Local Time) from SLRI Reporting Station
Rain Showers Rain Showers  
Wind Chill: 86°   Ceiling: 20000
Heat Index: 93°   Visibility: 5mi
Dew Point: 73°   Wind: 7mph
Humidity: 66%   Direction: 30°NNE
Pressure: 29.74"   Gusts: NA
Location:  9.7°S, 65.37°W
Report Text: SLRI 192000Z 03006KT 8000 VCSH SCT017 FEW020CB BKN200 30/23 Q1007
Loading
Personal Weather Stations






























Interactive Weather Map New forecast layout! Learn more

10-Day Weather Forecast

Advertisements
Track Severe Weather on mobile